sensor_id;sensor_type;location;lat;lon;timestamp;pressure;altitude;pressure_sealevel;temperature
50206;BMP280;36098;48.390;10.856;2024-02-21T00:00:55;97040.25;;;17.46
50206;BMP280;36098;48.390;10.856;2024-02-21T00:03:21;97042.84;;;17.46
50206;BMP280;36098;48.390;10.856;2024-02-21T00:05:46;97032.63;;;17.45
50206;BMP280;36098;48.390;10.856;2024-02-21T00:08:11;97025.00;;;17.43
50206;BMP280;36098;48.390;10.856;2024-02-21T00:10:37;97026.59;;;17.44
50206;BMP280;36098;48.390;10.856;2024-02-21T00:13:02;97027.41;;;17.45
50206;BMP280;36098;48.390;10.856;2024-02-21T00:15:28;97026.59;;;17.44
50206;BMP280;36098;48.390;10.856;2024-02-21T00:17:53;97026.59;;;17.44
50206;BMP280;36098;48.390;10.856;2024-02-21T00:20:18;97023.22;;;17.44
50206;BMP280;36098;48.390;10.856;2024-02-21T00:22:44;97024.81;;;17.45
50206;BMP280;36098;48.390;10.856;2024-02-21T00:25:10;97016.16;;;17.44
50206;BMP280;36098;48.390;10.856;2024-02-21T00:27:35;97020.22;;;17.40
50206;BMP280;36098;48.390;10.856;2024-02-21T00:30:01;97014.56;;;17.43
50206;BMP280;36098;48.390;10.856;2024-02-21T00:32:26;97012.16;;;17.42
50206;BMP280;36098;48.390;10.856;2024-02-21T00:34:52;97023.84;;;17.39
50206;BMP280;36098;48.390;10.856;2024-02-21T00:37:17;97012.38;;;17.40
50206;BMP280;36098;48.390;10.856;2024-02-21T00:39:42;97005.56;;;17.39
50206;BMP280;36098;48.390;10.856;2024-02-21T00:42:08;97014.97;;;17.40
50206;BMP280;36098;48.390;10.856;2024-02-21T00:44:33;97016.00;;;17.39
50206;BMP280;36098;48.390;10.856;2024-02-21T00:46:58;97012.59;;;17.39
50206;BMP280;36098;48.390;10.856;2024-02-21T00:49:24;97011.78;;;17.38
50206;BMP280;36098;48.390;10.856;2024-02-21T00:51:49;97017.81;;;17.39
50206;BMP280;36098;48.390;10.856;2024-02-21T00:54:14;97008.34;;;17.38
50206;BMP280;36098;48.390;10.856;2024-02-21T00:56:39;97004.38;;;17.35
50206;BMP280;36098;48.390;10.856;2024-02-21T00:59:05;96997.31;;;17.36
50206;BMP280;36098;48.390;10.856;2024-02-21T01:01:30;96992.91;;;17.36
50206;BMP280;36098;48.390;10.856;2024-02-21T01:03:55;96992.09;;;17.36
50206;BMP280;36098;48.390;10.856;2024-02-21T01:06:21;96984.50;;;17.34
50206;BMP280;36098;48.390;10.856;2024-02-21T01:08:47;96987.69;;;17.36
50206;BMP280;36098;48.390;10.856;2024-02-21T01:11:13;96992.09;;;17.36
50206;BMP280;36098;48.390;10.856;2024-02-21T01:13:38;96989.50;;;17.36
50206;BMP280;36098;48.390;10.856;2024-02-21T01:16:04;96983.50;;;17.35
50206;BMP280;36098;48.390;10.856;2024-02-21T01:18:29;96986.09;;;17.35
50206;BMP280;36098;48.390;10.856;2024-02-21T01:20:54;96973.25;;;17.34
50206;BMP280;36098;48.390;10.856;2024-02-21T01:23:20;96977.44;;;17.35
50206;BMP280;36098;48.390;10.856;2024-02-21T01:25:45;96970.00;;;17.32
50206;BMP280;36098;48.390;10.856;2024-02-21T01:28:10;96962.41;;;17.30
50206;BMP280;36098;48.390;10.856;2024-02-21T01:30:35;96967.41;;;17.32
50206;BMP280;36098;48.390;10.856;2024-02-21T01:33:01;96957.78;;;17.32
50206;BMP280;36098;48.390;10.856;2024-02-21T01:35:26;96958.97;;;17.30
50206;BMP280;36098;48.390;10.856;2024-02-21T01:37:51;96950.97;;;17.31
50206;BMP280;36098;48.390;10.856;2024-02-21T01:40:17;96955.16;;;17.32
50206;BMP280;36098;48.390;10.856;2024-02-21T01:42:42;96946.75;;;17.30
50206;BMP280;36098;48.390;10.856;2024-02-21T01:45:08;96943.13;;;17.31
50206;BMP280;36098;48.390;10.856;2024-02-21T01:47:34;96933.69;;;17.30
50206;BMP280;36098;48.390;10.856;2024-02-21T01:50:03;96938.91;;;17.30
50206;BMP280;36098;48.390;10.856;2024-02-21T01:52:29;96933.69;;;17.30
50206;BMP280;36098;48.390;10.856;2024-02-21T01:54:56;96933.69;;;17.30
50206;BMP280;36098;48.390;10.856;2024-02-21T01:57:22;96929.47;;;17.29
50206;BMP280;36098;48.390;10.856;2024-02-21T01:59:48;96927.06;;;17.28
50206;BMP280;36098;48.390;10.856;2024-02-21T02:02:13;96925.28;;;17.28
50206;BMP280;36098;48.390;10.856;2024-02-21T02:04:39;96922.66;;;17.28
50206;BMP280;36098;48.390;10.856;2024-02-21T02:07:06;96920.25;;;17.27
50206;BMP280;36098;48.390;10.856;2024-02-21T02:09:32;96903.78;;;17.26
50206;BMP280;36098;48.390;10.856;2024-02-21T02:11:57;96909.00;;;17.26
50206;BMP280;36098;48.390;10.856;2024-02-21T02:16:49;96902.19;;;17.25
50206;BMP280;36098;48.390;10.856;2024-02-21T02:19:15;96902.19;;;17.25
50206;BMP280;36098;48.390;10.856;2024-02-21T02:21:46;96892.75;;;17.24
50206;BMP280;36098;48.390;10.856;2024-02-21T02:24:13;96897.97;;;17.24
50206;BMP280;36098;48.390;10.856;2024-02-21T02:26:39;96896.94;;;17.25
50206;BMP280;36098;48.390;10.856;2024-02-21T02:29:05;96888.53;;;17.23
50206;BMP280;36098;48.390;10.856;2024-02-21T02:31:30;96881.94;;;17.21
50206;BMP280;36098;48.390;10.856;2024-02-21T02:33:55;96881.72;;;17.22
50206;BMP280;36098;48.390;10.856;2024-02-21T02:36:20;96875.91;;;17.20
50206;BMP280;36098;48.390;10.856;2024-02-21T02:38:46;96872.53;;;17.20
50206;BMP280;36098;48.390;10.856;2024-02-21T02:41:11;96869.91;;;17.20
50206;BMP280;36098;48.390;10.856;2024-02-21T02:43:36;96876.50;;;17.22
50206;BMP280;36098;48.390;10.856;2024-02-21T02:46:02;96874.91;;;17.21
50206;BMP280;36098;48.390;10.856;2024-02-21T02:48:28;96872.53;;;17.20
50206;BMP280;36098;48.390;10.856;2024-02-21T02:50:54;96874.13;;;17.21
50206;BMP280;36098;48.390;10.856;2024-02-21T02:53:19;96871.72;;;17.19
50206;BMP280;36098;48.390;10.856;2024-02-21T02:55:44;96864.69;;;17.20
50206;BMP280;36098;48.390;10.856;2024-02-21T02:58:10;96857.06;;;17.18
50206;BMP280;36098;48.390;10.856;2024-02-21T03:00:35;96859.88;;;17.17
50206;BMP280;36098;48.390;10.856;2024-02-21T03:03:01;96861.25;;;17.19
50206;BMP280;36098;48.390;10.856;2024-02-21T03:05:29;96856.25;;;17.18
50206;BMP280;36098;48.390;10.856;2024-02-21T03:07:54;96858.06;;;17.17
50206;BMP280;36098;48.390;10.856;2024-02-21T03:10:20;96860.69;;;17.17
50206;BMP280;36098;48.390;10.856;2024-02-21T03:12:45;96858.28;;;17.16
50206;BMP280;36098;48.390;10.856;2024-02-21T03:15:11;96858.06;;;17.17
50206;BMP280;36098;48.390;10.856;2024-02-21T03:17:37;96854.88;;;17.15
50206;BMP280;36098;48.390;10.856;2024-02-21T03:20:03;96861.69;;;17.16
50206;BMP280;36098;48.390;10.856;2024-02-21T03:22:34;96851.44;;;17.15
50206;BMP280;36098;48.390;10.856;2024-02-21T03:25:00;96856.69;;;17.15
50206;BMP280;36098;48.390;10.856;2024-02-21T03:27:25;96854.88;;;17.15
50206;BMP280;36098;48.390;10.856;2024-02-21T03:29:50;96850.66;;;17.14
50206;BMP280;36098;48.390;10.856;2024-02-21T03:32:16;96851.69;;;17.13
50206;BMP280;36098;48.390;10.856;2024-02-21T03:34:41;96853.72;;;17.11
50206;BMP280;36098;48.390;10.856;2024-02-21T03:37:06;96850.09;;;17.12
50206;BMP280;36098;48.390;10.856;2024-02-21T03:39:32;96846.47;;;17.13
50206;BMP280;36098;48.390;10.856;2024-02-21T03:41:57;96836.47;;;17.10
50206;BMP280;36098;48.390;10.856;2024-02-21T03:44:23;96843.47;;;17.10
50206;BMP280;36098;48.390;10.856;2024-02-21T03:46:48;96842.69;;;17.09
50206;BMP280;36098;48.390;10.856;2024-02-21T03:49:13;96846.09;;;17.10
50206;BMP280;36098;48.390;10.856;2024-02-21T03:51:39;96844.50;;;17.09
50206;BMP280;36098;48.390;10.856;2024-02-21T03:54:04;96844.50;;;17.09
50206;BMP280;36098;48.390;10.856;2024-02-21T03:56:29;96845.50;;;17.08
50206;BMP280;36098;48.390;10.856;2024-02-21T03:58:55;96843.66;;;17.08
50206;BMP280;36098;48.390;10.856;2024-02-21T04:01:20;96845.50;;;17.08
50206;BMP280;36098;48.390;10.856;2024-02-21T04:03:46;96837.66;;;17.08
50206;BMP280;36098;48.390;10.856;2024-02-21T04:06:11;96842.06;;;17.07
50206;BMP280;36098;48.390;10.856;2024-02-21T04:08:37;96836.06;;;17.07
50206;BMP280;36098;48.390;10.856;2024-02-21T04:11:02;96840.47;;;17.06
50206;BMP280;36098;48.390;10.856;2024-02-21T04:13:28;96825.84;;;17.05
50206;BMP280;36098;48.390;10.856;2024-02-21T04:15:53;96828.44;;;17.05
50206;BMP280;36098;48.390;10.856;2024-02-21T04:18:18;96827.44;;;17.06
50206;BMP280;36098;48.390;10.856;2024-02-21T04:20:44;96825.84;;;17.05
50206;BMP280;36098;48.390;10.856;2024-02-21T04:23:09;96820.63;;;17.05
50206;BMP280;36098;48.390;10.856;2024-02-21T04:25:35;96812.00;;;17.05
50206;BMP280;36098;48.390;10.856;2024-02-21T04:28:01;96796.34;;;17.05
50206;BMP280;36098;48.390;10.856;2024-02-21T04:30:26;96800.75;;;17.04
50206;BMP280;36098;48.390;10.856;2024-02-21T04:32:51;96793.94;;;17.03
50206;BMP280;36098;48.390;10.856;2024-02-21T04:35:16;96799.38;;;17.02
50206;BMP280;36098;48.390;10.856;2024-02-21T04:37:42;96787.13;;;17.02
50206;BMP280;36098;48.390;10.856;2024-02-21T04:40:08;96786.34;;;17.02
50206;BMP280;36098;48.390;10.856;2024-02-21T04:42:34;96786.34;;;17.02
50206;BMP280;36098;48.390;10.856;2024-02-21T04:44:59;96772.72;;;17.00
50206;BMP280;36098;48.390;10.856;2024-02-21T04:47:24;96780.31;;;17.01
50206;BMP280;36098;48.390;10.856;2024-02-21T04:49:50;96775.09;;;17.01
50206;BMP280;36098;48.390;10.856;2024-02-21T04:52:15;96759.06;;;16.98
50206;BMP280;36098;48.390;10.856;2024-02-21T04:54:40;96753.63;;;16.99
50206;BMP280;36098;48.390;10.856;2024-02-21T04:57:06;96746.22;;;16.96
50206;BMP280;36098;48.390;10.856;2024-02-21T04:59:31;96757.25;;;16.98
50206;BMP280;36098;48.390;10.856;2024-02-21T05:01:57;96760.06;;;16.97
50206;BMP280;36098;48.390;10.856;2024-02-21T05:04:23;96757.44;;;16.97
50206;BMP280;36098;48.390;10.856;2024-02-21T05:06:49;96753.03;;;16.97
50206;BMP280;36098;48.390;10.856;2024-02-21T05:09:14;96739.78;;;16.99
50206;BMP280;36098;48.390;10.856;2024-02-21T05:11:39;96752.03;;;16.98
50206;BMP280;36098;48.390;10.856;2024-02-21T05:14:04;96736.56;;;16.97
50206;BMP280;36098;48.390;10.856;2024-02-21T05:16:31;96749.22;;;17.00
50206;BMP280;36098;48.390;10.856;2024-02-21T05:18:56;96734.13;;;17.02
50206;BMP280;36098;48.390;10.856;2024-02-21T05:21:25;96724.50;;;17.02
50206;BMP280;36098;48.390;10.856;2024-02-21T05:23:51;96724.28;;;17.04
50206;BMP280;36098;48.390;10.856;2024-02-21T05:26:24;96719.66;;;17.06
50206;BMP280;36098;48.390;10.856;2024-02-21T05:28:49;96721.25;;;17.07
50206;BMP280;36098;48.390;10.856;2024-02-21T05:31:16;96725.00;;;17.11
50206;BMP280;36098;48.390;10.856;2024-02-21T05:33:41;96714.38;;;17.12
50206;BMP280;36098;48.390;10.856;2024-02-21T05:36:07;96709.47;;;17.16
50206;BMP280;36098;48.390;10.856;2024-02-21T05:38:32;96712.47;;;17.19
50206;BMP280;36098;48.390;10.856;2024-02-21T05:40:57;96709.41;;;17.22
50206;BMP280;36098;48.390;10.856;2024-02-21T05:43:23;96697.75;;;17.25
50206;BMP280;36098;48.390;10.856;2024-02-21T05:45:48;96691.53;;;17.26
50206;BMP280;36098;48.390;10.856;2024-02-21T05:48:13;96693.50;;;17.30
50206;BMP280;36098;48.390;10.856;2024-02-21T05:50:39;96685.66;;;17.30
50206;BMP280;36098;48.390;10.856;2024-02-21T05:53:04;96669.75;;;17.32
50206;BMP280;36098;48.390;10.856;2024-02-21T05:55:29;96673.91;;;17.39
50206;BMP280;36098;48.390;10.856;2024-02-21T05:57:55;96670.28;;;17.40
50206;BMP280;36098;48.390;10.856;2024-02-21T06:00:20;96671.44;;;17.44
50206;BMP280;36098;48.390;10.856;2024-02-21T06:02:46;96666.66;;;17.41
50206;BMP280;36098;48.390;10.856;2024-02-21T06:05:11;96671.44;;;17.44
50206;BMP280;36098;48.390;10.856;2024-02-21T06:07:36;96670.66;;;17.44
50206;BMP280;36098;48.390;10.856;2024-02-21T06:10:02;96668.63;;;17.46
50206;BMP280;36098;48.390;10.856;2024-02-21T06:12:28;96671.00;;;17.47
50206;BMP280;36098;48.390;10.856;2024-02-21T06:14:53;96683.63;;;17.50
50206;BMP280;36098;48.390;10.856;2024-02-21T06:17:19;96687.84;;;17.51
50206;BMP280;36098;48.390;10.856;2024-02-21T06:19:44;96685.25;;;17.51
50206;BMP280;36098;48.390;10.856;2024-02-21T06:22:10;96676.38;;;17.52
50206;BMP280;36098;48.390;10.856;2024-02-21T06:24:36;96672.97;;;17.52
50206;BMP280;36098;48.390;10.856;2024-02-21T06:27:03;96665.69;;;17.54
50206;BMP280;36098;48.390;10.856;2024-02-21T06:29:28;96666.72;;;17.53
50206;BMP280;36098;48.390;10.856;2024-02-21T06:31:53;96669.13;;;17.54
50206;BMP280;36098;48.390;10.856;2024-02-21T06:34:19;96668.31;;;17.54
50206;BMP280;36098;48.390;10.856;2024-02-21T06:36:44;96671.94;;;17.53
50206;BMP280;36098;48.390;10.856;2024-02-21T06:39:10;96673.78;;;17.52
50206;BMP280;36098;48.390;10.856;2024-02-21T06:41:36;96679.00;;;17.52
50206;BMP280;36098;48.390;10.856;2024-02-21T06:44:02;96676.13;;;17.54
50206;BMP280;36098;48.390;10.856;2024-02-21T06:46:28;96675.13;;;17.55
50206;BMP280;36098;48.390;10.856;2024-02-21T06:48:54;96676.13;;;17.54
50206;BMP280;36098;48.390;10.856;2024-02-21T06:51:21;96675.38;;;17.53
50206;BMP280;36098;48.390;10.856;2024-02-21T06:53:47;96672.97;;;17.52
50206;BMP280;36098;48.390;10.856;2024-02-21T06:56:12;96682.19;;;17.54
50206;BMP280;36098;48.390;10.856;2024-02-21T06:58:37;96681.38;;;17.54
50206;BMP280;36098;48.390;10.856;2024-02-21T07:01:03;96675.38;;;17.53
50206;BMP280;36098;48.390;10.856;2024-02-21T07:03:28;96688.19;;;17.55
50206;BMP280;36098;48.390;10.856;2024-02-21T07:05:53;96678.19;;;17.52
50206;BMP280;36098;48.390;10.856;2024-02-21T07:08:19;96668.53;;;17.52
50206;BMP280;36098;48.390;10.856;2024-02-21T07:10:44;96665.69;;;17.54
50206;BMP280;36098;48.390;10.856;2024-02-21T07:13:09;96663.91;;;17.54
50206;BMP280;36098;48.390;10.856;2024-02-21T07:15:35;96661.28;;;17.54
50206;BMP280;36098;48.390;10.856;2024-02-21T07:18:01;96659.69;;;17.53
50206;BMP280;36098;48.390;10.856;2024-02-21T07:20:26;96662.88;;;17.55
50206;BMP280;36098;48.390;10.856;2024-02-21T07:22:52;96659.69;;;17.53
50206;BMP280;36098;48.390;10.856;2024-02-21T07:25:17;96656.06;;;17.54
50206;BMP280;36098;48.390;10.856;2024-02-21T07:27:44;96657.88;;;17.54
50206;BMP280;36098;48.390;10.856;2024-02-21T07:30:09;96652.06;;;17.52
50206;BMP280;36098;48.390;10.856;2024-02-21T07:32:35;96660.47;;;17.54
50206;BMP280;36098;48.390;10.856;2024-02-21T07:35:00;96663.91;;;17.54
50206;BMP280;36098;48.390;10.856;2024-02-21T07:37:25;96652.88;;;17.52
50206;BMP280;36098;48.390;10.856;2024-02-21T07:39:50;96647.66;;;17.52
50206;BMP280;36098;48.390;10.856;2024-02-21T07:42:16;96644.47;;;17.50
50206;BMP280;36098;48.390;10.856;2024-02-21T07:44:41;96651.28;;;17.51
50206;BMP280;36098;48.390;10.856;2024-02-21T07:47:06;96654.09;;;17.50
50206;BMP280;36098;48.390;10.856;2024-02-21T07:49:32;96651.28;;;17.51
50206;BMP280;36098;48.390;10.856;2024-02-21T07:52:00;96639.25;;;17.50
50206;BMP280;36098;48.390;10.856;2024-02-21T07:54:25;96639.00;;;17.52
50206;BMP280;36098;48.390;10.856;2024-02-21T07:56:50;96633.78;;;17.52
50206;BMP280;36098;48.390;10.856;2024-02-21T07:59:15;96638.00;;;17.53
50206;BMP280;36098;48.390;10.856;2024-02-21T08:01:41;96642.44;;;17.52
50206;BMP280;36098;48.390;10.856;2024-02-21T08:04:06;96627.34;;;17.54
50206;BMP280;36098;48.390;10.856;2024-02-21T08:06:31;96631.53;;;17.55
50206;BMP280;36098;48.390;10.856;2024-02-21T08:08:57;96643.56;;;17.56
50206;BMP280;36098;48.390;10.856;2024-02-21T08:11:22;96639.38;;;17.55
50206;BMP280;36098;48.390;10.856;2024-02-21T08:13:47;96638.16;;;17.58
50206;BMP280;36098;48.390;10.856;2024-02-21T08:16:13;96638.34;;;17.56
50206;BMP280;36098;48.390;10.856;2024-02-21T08:18:38;96632.91;;;17.58
50206;BMP280;36098;48.390;10.856;2024-02-21T08:21:04;96629.50;;;17.57
50206;BMP280;36098;48.390;10.856;2024-02-21T08:23:29;96628.69;;;17.57
50206;BMP280;36098;48.390;10.856;2024-02-21T08:25:54;96625.88;;;17.58
50206;BMP280;36098;48.390;10.856;2024-02-21T08:28:20;96608.59;;;17.57
50206;BMP280;36098;48.390;10.856;2024-02-21T08:30:45;96614.41;;;17.59
50206;BMP280;36098;48.390;10.856;2024-02-21T08:33:15;96621.22;;;17.60
50206;BMP280;36098;48.390;10.856;2024-02-21T08:35:42;96619.41;;;17.61
50206;BMP280;36098;48.390;10.856;2024-02-21T08:38:07;96622.81;;;17.61
50206;BMP280;36098;48.390;10.856;2024-02-21T08:40:32;96617.00;;;17.59
50206;BMP280;36098;48.390;10.856;2024-02-21T08:43:00;96613.94;;;17.62
50206;BMP280;36098;48.390;10.856;2024-02-21T08:45:25;96617.81;;;17.60
50206;BMP280;36098;48.390;10.856;2024-02-21T08:47:50;96607.94;;;17.62
50206;BMP280;36098;48.390;10.856;2024-02-21T08:50:15;96598.28;;;17.62
50206;BMP280;36098;48.390;10.856;2024-02-21T08:52:41;96598.06;;;17.64
50206;BMP280;36098;48.390;10.856;2024-02-21T08:55:07;96592.84;;;17.64
50206;BMP280;36098;48.390;10.856;2024-02-21T08:57:33;96595.47;;;17.64
50206;BMP280;36098;48.390;10.856;2024-02-21T09:00:05;96588.41;;;17.64
50206;BMP280;36098;48.390;10.856;2024-02-21T09:02:40;96595.66;;;17.62
50206;BMP280;36098;48.390;10.856;2024-02-21T09:05:06;96596.03;;;17.66
50206;BMP280;36098;48.390;10.856;2024-02-21T09:07:31;96608.06;;;17.67
50206;BMP280;36098;48.390;10.856;2024-02-21T09:09:57;96597.81;;;17.65
50206;BMP280;36098;48.390;10.856;2024-02-21T09:12:22;96591.59;;;17.66
50206;BMP280;36098;48.390;10.856;2024-02-21T09:14:47;96587.16;;;17.67
50206;BMP280;36098;48.390;10.856;2024-02-21T09:17:16;96580.94;;;17.67
50206;BMP280;36098;48.390;10.856;2024-02-21T09:19:42;96579.13;;;17.68
50206;BMP280;36098;48.390;10.856;2024-02-21T09:22:07;96579.13;;;17.68
50206;BMP280;36098;48.390;10.856;2024-02-21T09:24:33;96579.13;;;17.68
50206;BMP280;36098;48.390;10.856;2024-02-21T09:26:58;96571.28;;;17.68
50206;BMP280;36098;48.390;10.856;2024-02-21T09:29:24;96567.41;;;17.70
50206;BMP280;36098;48.390;10.856;2024-02-21T09:31:49;96566.06;;;17.68
50206;BMP280;36098;48.390;10.856;2024-02-21T09:34:14;96563.22;;;17.69
50206;BMP280;36098;48.390;10.856;2024-02-21T09:36:39;96572.44;;;17.72
50206;BMP280;36098;48.390;10.856;2024-02-21T09:39:05;96562.19;;;17.70
50206;BMP280;36098;48.390;10.856;2024-02-21T09:41:32;96567.41;;;17.70
50206;BMP280;36098;48.390;10.856;2024-02-21T09:44:00;96560.38;;;17.71
50206;BMP280;36098;48.390;10.856;2024-02-21T09:46:45;96558.00;;;17.69
50206;BMP280;36098;48.390;10.856;2024-02-21T09:49:30;96552.75;;;17.69
50206;BMP280;36098;48.390;10.856;2024-02-21T09:51:57;96552.56;;;17.71
50206;BMP280;36098;48.390;10.856;2024-02-21T09:54:24;96554.59;;;17.69
50206;BMP280;36098;48.390;10.856;2024-02-21T09:56:50;96546.31;;;17.72
50206;BMP280;36098;48.390;10.856;2024-02-21T09:59:15;96545.28;;;17.73
50206;BMP280;36098;48.390;10.856;2024-02-21T10:01:42;96540.53;;;17.81
50206;BMP280;36098;48.390;10.856;2024-02-21T10:04:08;96541.22;;;18.00
50206;BMP280;36098;48.390;10.856;2024-02-21T10:06:34;96543.06;;;18.22
50206;BMP280;36098;48.390;10.856;2024-02-21T10:08:59;96526.31;;;18.69
50206;BMP280;36098;48.390;10.856;2024-02-21T10:11:25;96533.38;;;18.23
50206;BMP280;36098;48.390;10.856;2024-02-21T10:13:51;96523.31;;;18.38
50206;BMP280;36098;48.390;10.856;2024-02-21T10:16:17;96522.81;;;18.52
50206;BMP280;36098;48.390;10.856;2024-02-21T10:18:42;96514.53;;;18.95
50206;BMP280;36098;48.390;10.856;2024-02-21T10:21:08;96514.28;;;18.68
50206;BMP280;36098;48.390;10.856;2024-02-21T10:23:47;96520.03;;;18.82
50206;BMP280;36098;48.390;10.856;2024-02-21T10:26:14;96512.25;;;18.59
50206;BMP280;36098;48.390;10.856;2024-02-21T10:28:39;96518.41;;;18.41
50206;BMP280;36098;48.390;10.856;2024-02-21T10:31:10;96504.34;;;18.31
50206;BMP280;36098;48.390;10.856;2024-02-21T10:33:35;96501.16;;;18.29
50206;BMP280;36098;48.390;10.856;2024-02-21T10:36:08;96506.69;;;18.32
50206;BMP280;36098;48.390;10.856;2024-02-21T10:38:36;96496.69;;;18.41
50206;BMP280;36098;48.390;10.856;2024-02-21T10:41:03;96492.59;;;18.45
50206;BMP280;36098;48.390;10.856;2024-02-21T10:43:32;96484.53;;;18.46
50206;BMP280;36098;48.390;10.856;2024-02-21T10:46:00;96480.78;;;18.42
50206;BMP280;36098;48.390;10.856;2024-02-21T10:48:36;96479.97;;;18.42
50206;BMP280;36098;48.390;10.856;2024-02-21T10:51:13;96470.31;;;18.42
50206;BMP280;36098;48.390;10.856;2024-02-21T10:56:30;96460.06;;;18.41
50206;BMP280;36098;48.390;10.856;2024-02-21T10:59:03;96456.44;;;18.42
50206;BMP280;36098;48.390;10.856;2024-02-21T11:01:29;96459.84;;;18.42
50206;BMP280;36098;48.390;10.856;2024-02-21T11:03:59;96443.34;;;18.42
50206;BMP280;36098;48.390;10.856;2024-02-21T11:06:26;96442.34;;;18.43
50206;BMP280;36098;48.390;10.856;2024-02-21T11:09:03;96435.50;;;18.42
50206;BMP280;36098;48.390;10.856;2024-02-21T11:11:30;96425.88;;;18.42
50206;BMP280;36098;48.390;10.856;2024-02-21T11:14:20;96432.69;;;18.43
50206;BMP280;36098;48.390;10.856;2024-02-21T11:16:45;96429.03;;;18.44
50206;BMP280;36098;48.390;10.856;2024-02-21T11:19:21;96431.66;;;18.44
50206;BMP280;36098;48.390;10.856;2024-02-21T11:21:49;96429.81;;;18.45
50206;BMP280;36098;48.390;10.856;2024-02-21T11:24:32;96423.56;;;18.46
50206;BMP280;36098;48.390;10.856;2024-02-21T11:27:12;96417.34;;;18.47
50206;BMP280;36098;48.390;10.856;2024-02-21T11:29:47;96409.47;;;18.47
50206;BMP280;36098;48.390;10.856;2024-02-21T11:32:15;96400.59;;;18.48
50206;BMP280;36098;48.390;10.856;2024-02-21T11:34:40;96399.59;;;18.49
50206;BMP280;36098;48.390;10.856;2024-02-21T11:37:15;96393.31;;;18.50
50206;BMP280;36098;48.390;10.856;2024-02-21T11:39:41;96384.19;;;18.52
50206;BMP280;36098;48.390;10.856;2024-02-21T11:42:07;96382.63;;;18.51
50206;BMP280;36098;48.390;10.856;2024-02-21T11:44:34;96364.88;;;18.53
50206;BMP280;36098;48.390;10.856;2024-02-21T11:47:01;96369.88;;;18.55
50206;BMP280;36098;48.390;10.856;2024-02-21T11:49:29;96362.03;;;18.55
50206;BMP280;36098;48.390;10.856;2024-02-21T11:52:01;96366.00;;;18.57
50206;BMP280;36098;48.390;10.856;2024-02-21T11:54:27;96358.16;;;18.57
50206;BMP280;36098;48.390;10.856;2024-02-21T11:56:53;96351.09;;;18.58
50206;BMP280;36098;48.390;10.856;2024-02-21T11:59:18;96339.59;;;18.59
50206;BMP280;36098;48.390;10.856;2024-02-21T12:01:44;96337.31;;;18.62
50206;BMP280;36098;48.390;10.856;2024-02-21T12:04:10;96330.50;;;18.61
50206;BMP280;36098;48.390;10.856;2024-02-21T12:06:35;96322.94;;;18.65
50206;BMP280;36098;48.390;10.856;2024-02-21T12:09:00;96309.56;;;18.61
50206;BMP280;36098;48.390;10.856;2024-02-21T12:11:26;96312.28;;;18.66
50206;BMP280;36098;48.390;10.856;2024-02-21T12:14:02;96297.38;;;18.67
50206;BMP280;36098;48.390;10.856;2024-02-21T12:16:29;96296.34;;;18.68
50206;BMP280;36098;48.390;10.856;2024-02-21T12:18:59;96298.72;;;18.69
50206;BMP280;36098;48.390;10.856;2024-02-21T12:21:34;96291.66;;;18.70
50206;BMP280;36098;48.390;10.856;2024-02-21T12:24:17;96288.81;;;18.71
50206;BMP280;36098;48.390;10.856;2024-02-21T12:26:42;96287.78;;;18.72
50206;BMP280;36098;48.390;10.856;2024-02-21T12:29:08;96285.97;;;18.73
50206;BMP280;36098;48.390;10.856;2024-02-21T12:31:37;96283.91;;;18.75
50206;BMP280;36098;48.390;10.856;2024-02-21T12:34:03;96286.28;;;18.76
50206;BMP280;36098;48.390;10.856;2024-02-21T12:36:30;96268.22;;;18.75
50206;BMP280;36098;48.390;10.856;2024-02-21T12:38:55;96273.75;;;18.78
50206;BMP280;36098;48.390;10.856;2024-02-21T12:41:20;96269.31;;;18.79
50206;BMP280;36098;48.390;10.856;2024-02-21T12:43:46;96260.69;;;18.78
50206;BMP280;36098;48.390;10.856;2024-02-21T12:46:12;96267.03;;;18.82
50206;BMP280;36098;48.390;10.856;2024-02-21T12:48:37;96264.63;;;18.81
50206;BMP280;36098;48.390;10.856;2024-02-21T12:51:03;96253.94;;;18.82
50206;BMP280;36098;48.390;10.856;2024-02-21T12:53:29;96244.50;;;18.81
50206;BMP280;36098;48.390;10.856;2024-02-21T12:55:55;96239.03;;;18.83
50206;BMP280;36098;48.390;10.856;2024-02-21T12:58:21;96239.03;;;18.83
50206;BMP280;36098;48.390;10.856;2024-02-21T13:00:46;96228.53;;;18.83
50206;BMP280;36098;48.390;10.856;2024-02-21T13:03:12;96224.91;;;18.84
50206;BMP280;36098;48.390;10.856;2024-02-21T13:05:37;96215.00;;;18.86
50206;BMP280;36098;48.390;10.856;2024-02-21T13:08:04;96206.13;;;18.87
50206;BMP280;36098;48.390;10.856;2024-02-21T13:10:30;96203.50;;;18.87
50206;BMP280;36098;48.390;10.856;2024-02-21T13:12:55;96204.53;;;18.86
50206;BMP280;36098;48.390;10.856;2024-02-21T13:15:21;96197.81;;;18.90
50206;BMP280;36098;48.390;10.856;2024-02-21T13:17:46;96198.56;;;18.90
50206;BMP280;36098;48.390;10.856;2024-02-21T13:20:12;96196.28;;;18.94
50206;BMP280;36098;48.390;10.856;2024-02-21T13:22:37;96180.09;;;18.97
50206;BMP280;36098;48.390;10.856;2024-02-21T13:25:04;96182.22;;;19.00
50206;BMP280;36098;48.390;10.856;2024-02-21T13:27:30;96165.59;;;19.06
50206;BMP280;36098;48.390;10.856;2024-02-21T13:29:55;96161.44;;;19.10
50206;BMP280;36098;48.390;10.856;2024-02-21T13:32:20;96151.03;;;19.15
50206;BMP280;36098;48.390;10.856;2024-02-21T13:34:46;96152.97;;;19.19
50206;BMP280;36098;48.390;10.856;2024-02-21T13:37:11;96142.22;;;19.21
50206;BMP280;36098;48.390;10.856;2024-02-21T13:39:37;96143.81;;;19.22
50206;BMP280;36098;48.390;10.856;2024-02-21T13:42:02;96139.13;;;19.24
50206;BMP280;36098;48.390;10.856;2024-02-21T13:44:30;96133.41;;;19.27
50206;BMP280;36098;48.390;10.856;2024-02-21T13:46:56;96136.09;;;19.32
50206;BMP280;36098;48.390;10.856;2024-02-21T13:49:21;96117.75;;;19.32
50206;BMP280;36098;48.390;10.856;2024-02-21T13:51:47;96115.09;;;19.27
50206;BMP280;36098;48.390;10.856;2024-02-21T13:54:12;96118.81;;;19.31
50206;BMP280;36098;48.390;10.856;2024-02-21T13:56:39;96110.44;;;19.34